Terminal Aerodrome Forecast
Issued by NWS

Home | Current Version | Previous Version | Text Only | Print | Product List | Glossary On
Versions: 1 2 3 4 5 6 7 8 9 10 11 12 13 14 15 16 17 18 19 20 21 22 23 24 25 26 27 28 29 30 31 32 33 34
000
FTUS46 KSGX 212329
TAFONT
TAF
KONT 212329Z 2200/2306 25013G20KT P6SM SCT045
     FM220400 27006KT P6SM SCT030
     FM221000 26003KT 6SM BR SCT015
     FM221700 35008KT P6SM SKC
     FM222000 29012G22KT P6SM SKC
     FM230300 25007KT P6SM SKC=

USA.gov is the U.S. government's official web portal to all federal, state and local government web resources and services.